sensor_id;sensor_type;location;lat;lon;timestamp;P1;durP1;ratioP1;P2;durP2;ratioP2
20824;SDS011;10573;50.936;6.978;2023-03-01T00:01:46;10.43;;;4.97;;
20824;SDS011;10573;50.936;6.978;2023-03-01T00:04:11;9.17;;;5.30;;
20824;SDS011;10573;50.936;6.978;2023-03-01T00:06:36;9.50;;;5.43;;
20824;SDS011;10573;50.936;6.978;2023-03-01T00:09:02;9.87;;;5.03;;
20824;SDS011;10573;50.936;6.978;2023-03-01T00:11:29;8.13;;;4.67;;
20824;SDS011;10573;50.936;6.978;2023-03-01T00:13:57;6.20;;;4.57;;
20824;SDS011;10573;50.936;6.978;2023-03-01T00:16:31;9.73;;;5.43;;
20824;SDS011;10573;50.936;6.978;2023-03-01T00:19:05;9.73;;;5.47;;
20824;SDS011;10573;50.936;6.978;2023-03-01T00:21:31;13.87;;;4.67;;
20824;SDS011;10573;50.936;6.978;2023-03-01T00:23:58;8.00;;;4.53;;
20824;SDS011;10573;50.936;6.978;2023-03-01T00:26:24;9.83;;;5.20;;
20824;SDS011;10573;50.936;6.978;2023-03-01T00:28:51;7.87;;;4.73;;
20824;SDS011;10573;50.936;6.978;2023-03-01T00:31:20;8.33;;;4.87;;
20824;SDS011;10573;50.936;6.978;2023-03-01T00:33:47;9.80;;;4.93;;
20824;SDS011;10573;50.936;6.978;2023-03-01T00:36:14;7.33;;;4.57;;
20824;SDS011;10573;50.936;6.978;2023-03-01T00:38:41;6.37;;;4.77;;
20824;SDS011;10573;50.936;6.978;2023-03-01T00:41:12;8.40;;;5.20;;
20824;SDS011;10573;50.936;6.978;2023-03-01T00:43:40;8.70;;;4.93;;
20824;SDS011;10573;50.936;6.978;2023-03-01T00:46:07;8.23;;;5.37;;
20824;SDS011;10573;50.936;6.978;2023-03-01T00:48:35;8.80;;;5.03;;
20824;SDS011;10573;50.936;6.978;2023-03-01T00:51:20;8.70;;;4.90;;
20824;SDS011;10573;50.936;6.978;2023-03-01T00:53:49;8.37;;;4.90;;
20824;SDS011;10573;50.936;6.978;2023-03-01T00:56:16;9.03;;;5.00;;
20824;SDS011;10573;50.936;6.978;2023-03-01T00:58:41;8.47;;;4.97;;
20824;SDS011;10573;50.936;6.978;2023-03-01T01:01:08;7.27;;;5.17;;
20824;SDS011;10573;50.936;6.978;2023-03-01T01:03:45;9.17;;;5.37;;
20824;SDS011;10573;50.936;6.978;2023-03-01T01:06:23;9.55;;;6.03;;
20824;SDS011;10573;50.936;6.978;2023-03-01T01:08:51;7.70;;;5.07;;
20824;SDS011;10573;50.936;6.978;2023-03-01T01:11:18;6.80;;;4.60;;
20824;SDS011;10573;50.936;6.978;2023-03-01T01:13:44;8.77;;;5.03;;
20824;SDS011;10573;50.936;6.978;2023-03-01T01:16:11;10.43;;;5.33;;
20824;SDS011;10573;50.936;6.978;2023-03-01T01:18:38;8.20;;;5.03;;
20824;SDS011;10573;50.936;6.978;2023-03-01T01:21:08;7.17;;;5.10;;
20824;SDS011;10573;50.936;6.978;2023-03-01T01:23:38;10.80;;;5.63;;
20824;SDS011;10573;50.936;6.978;2023-03-01T01:26:09;9.63;;;5.67;;
20824;SDS011;10573;50.936;6.978;2023-03-01T01:28:37;8.67;;;5.40;;
20824;SDS011;10573;50.936;6.978;2023-03-01T01:31:03;16.27;;;5.40;;
20824;SDS011;10573;50.936;6.978;2023-03-01T01:33:29;8.43;;;4.80;;
20824;SDS011;10573;50.936;6.978;2023-03-01T01:35:54;7.70;;;4.90;;
20824;SDS011;10573;50.936;6.978;2023-03-01T01:38:20;9.40;;;5.03;;
20824;SDS011;10573;50.936;6.978;2023-03-01T01:40:46;8.63;;;5.10;;
20824;SDS011;10573;50.936;6.978;2023-03-01T01:43:20;10.57;;;4.93;;
20824;SDS011;10573;50.936;6.978;2023-03-01T01:45:45;9.20;;;4.67;;
20824;SDS011;10573;50.936;6.978;2023-03-01T01:48:13;7.10;;;5.20;;
20824;SDS011;10573;50.936;6.978;2023-03-01T01:50:43;9.60;;;5.00;;
20824;SDS011;10573;50.936;6.978;2023-03-01T01:53:11;7.20;;;4.93;;
20824;SDS011;10573;50.936;6.978;2023-03-01T01:55:41;10.03;;;5.43;;
20824;SDS011;10573;50.936;6.978;2023-03-01T01:58:11;14.83;;;5.40;;
20824;SDS011;10573;50.936;6.978;2023-03-01T02:00:38;7.77;;;5.43;;
20824;SDS011;10573;50.936;6.978;2023-03-01T02:03:11;10.07;;;5.53;;
20824;SDS011;10573;50.936;6.978;2023-03-01T02:08:59;10.17;;;4.93;;
20824;SDS011;10573;50.936;6.978;2023-03-01T02:11:30;9.20;;;6.25;;
20824;SDS011;10573;50.936;6.978;2023-03-01T02:13:57;6.37;;;5.20;;
20824;SDS011;10573;50.936;6.978;2023-03-01T02:16:22;8.73;;;5.47;;
20824;SDS011;10573;50.936;6.978;2023-03-01T02:18:48;8.50;;;5.40;;
20824;SDS011;10573;50.936;6.978;2023-03-01T02:23:53;8.95;;;5.93;;
20824;SDS011;10573;50.936;6.978;2023-03-01T02:26:23;8.20;;;5.70;;
20824;SDS011;10573;50.936;6.978;2023-03-01T02:28:58;10.70;;;6.30;;
20824;SDS011;10573;50.936;6.978;2023-03-01T02:31:24;8.63;;;5.78;;
20824;SDS011;10573;50.936;6.978;2023-03-01T02:34:12;8.65;;;6.13;;
20824;SDS011;10573;50.936;6.978;2023-03-01T02:37:02;10.77;;;6.03;;
20824;SDS011;10573;50.936;6.978;2023-03-01T02:39:33;8.88;;;6.25;;
20824;SDS011;10573;50.936;6.978;2023-03-01T02:42:07;12.32;;;6.05;;
20824;SDS011;10573;50.936;6.978;2023-03-01T02:44:37;7.60;;;5.70;;
20824;SDS011;10573;50.936;6.978;2023-03-01T02:47:02;9.83;;;5.77;;
20824;SDS011;10573;50.936;6.978;2023-03-01T02:49:30;9.70;;;6.03;;
20824;SDS011;10573;50.936;6.978;2023-03-01T02:57:33;9.93;;;6.07;;
20824;SDS011;10573;50.936;6.978;2023-03-01T03:00:03;8.98;;;6.45;;
20824;SDS011;10573;50.936;6.978;2023-03-01T03:02:32;8.77;;;6.38;;
20824;SDS011;10573;50.936;6.978;2023-03-01T03:05:05;12.55;;;6.40;;
20824;SDS011;10573;50.936;6.978;2023-03-01T03:07:36;9.50;;;6.45;;
20824;SDS011;10573;50.936;6.978;2023-03-01T03:10:03;10.77;;;6.20;;
20824;SDS011;10573;50.936;6.978;2023-03-01T03:12:31;9.65;;;6.40;;
20824;SDS011;10573;50.936;6.978;2023-03-01T03:14:57;9.65;;;6.60;;
20824;SDS011;10573;50.936;6.978;2023-03-01T03:17:22;9.10;;;6.30;;
20824;SDS011;10573;50.936;6.978;2023-03-01T03:19:48;11.98;;;6.95;;
20824;SDS011;10573;50.936;6.978;2023-03-01T03:22:13;13.40;;;6.10;;
20824;SDS011;10573;50.936;6.978;2023-03-01T03:24:39;11.23;;;6.67;;
20824;SDS011;10573;50.936;6.978;2023-03-01T03:27:04;9.60;;;6.20;;
20824;SDS011;10573;50.936;6.978;2023-03-01T03:29:31;13.00;;;6.53;;
20824;SDS011;10573;50.936;6.978;2023-03-01T03:31:57;10.23;;;6.47;;
20824;SDS011;10573;50.936;6.978;2023-03-01T03:34:22;9.40;;;6.77;;
20824;SDS011;10573;50.936;6.978;2023-03-01T03:36:48;10.60;;;6.53;;
20824;SDS011;10573;50.936;6.978;2023-03-01T03:39:22;9.05;;;6.40;;
20824;SDS011;10573;50.936;6.978;2023-03-01T03:41:51;11.75;;;7.10;;
20824;SDS011;10573;50.936;6.978;2023-03-01T03:44:17;9.10;;;6.60;;
20824;SDS011;10573;50.936;6.978;2023-03-01T03:46:43;9.97;;;6.47;;
20824;SDS011;10573;50.936;6.978;2023-03-01T03:49:08;9.30;;;6.90;;
20824;SDS011;10573;50.936;6.978;2023-03-01T03:51:33;10.67;;;6.73;;
20824;SDS011;10573;50.936;6.978;2023-03-01T03:53:59;9.87;;;6.70;;
20824;SDS011;10573;50.936;6.978;2023-03-01T03:56:24;9.97;;;6.57;;
20824;SDS011;10573;50.936;6.978;2023-03-01T03:58:51;8.82;;;6.63;;
20824;SDS011;10573;50.936;6.978;2023-03-01T04:01:17;8.57;;;6.40;;
20824;SDS011;10573;50.936;6.978;2023-03-01T04:03:42;9.23;;;6.30;;
20824;SDS011;10573;50.936;6.978;2023-03-01T04:06:11;9.18;;;6.30;;
20824;SDS011;10573;50.936;6.978;2023-03-01T04:08:38;11.88;;;7.10;;
20824;SDS011;10573;50.936;6.978;2023-03-01T04:11:04;9.90;;;7.03;;
20824;SDS011;10573;50.936;6.978;2023-03-01T04:13:49;10.00;;;6.83;;
20824;SDS011;10573;50.936;6.978;2023-03-01T04:16:15;9.93;;;7.10;;
20824;SDS011;10573;50.936;6.978;2023-03-01T04:18:41;8.97;;;6.43;;
20824;SDS011;10573;50.936;6.978;2023-03-01T04:21:07;10.13;;;7.00;;
20824;SDS011;10573;50.936;6.978;2023-03-01T04:23:32;12.60;;;7.13;;
20824;SDS011;10573;50.936;6.978;2023-03-01T04:25:58;9.30;;;7.13;;
20824;SDS011;10573;50.936;6.978;2023-03-01T04:28:26;10.23;;;7.43;;
20824;SDS011;10573;50.936;6.978;2023-03-01T04:30:54;11.07;;;6.25;;
20824;SDS011;10573;50.936;6.978;2023-03-01T04:33:20;11.75;;;6.20;;
20824;SDS011;10573;50.936;6.978;2023-03-01T04:35:47;10.18;;;6.90;;
20824;SDS011;10573;50.936;6.978;2023-03-01T04:38:14;12.95;;;6.85;;
20824;SDS011;10573;50.936;6.978;2023-03-01T04:40:40;11.35;;;6.85;;
20824;SDS011;10573;50.936;6.978;2023-03-01T04:43:08;11.63;;;6.95;;
20824;SDS011;10573;50.936;6.978;2023-03-01T04:45:34;10.52;;;6.95;;
20824;SDS011;10573;50.936;6.978;2023-03-01T04:48:00;11.60;;;7.10;;
20824;SDS011;10573;50.936;6.978;2023-03-01T04:50:25;10.70;;;6.90;;
20824;SDS011;10573;50.936;6.978;2023-03-01T04:52:51;12.50;;;7.60;;
20824;SDS011;10573;50.936;6.978;2023-03-01T04:55:17;12.80;;;6.97;;
20824;SDS011;10573;50.936;6.978;2023-03-01T04:57:43;11.68;;;7.50;;
20824;SDS011;10573;50.936;6.978;2023-03-01T05:00:12;11.80;;;7.00;;
20824;SDS011;10573;50.936;6.978;2023-03-01T05:02:58;13.00;;;7.65;;
20824;SDS011;10573;50.936;6.978;2023-03-01T05:05:36;13.88;;;7.90;;
20824;SDS011;10573;50.936;6.978;2023-03-01T05:08:07;13.75;;;7.60;;
20824;SDS011;10573;50.936;6.978;2023-03-01T05:10:33;12.93;;;7.20;;
20824;SDS011;10573;50.936;6.978;2023-03-01T05:13:00;14.27;;;6.95;;
20824;SDS011;10573;50.936;6.978;2023-03-01T05:15:27;11.55;;;7.88;;
20824;SDS011;10573;50.936;6.978;2023-03-01T05:17:56;15.38;;;7.68;;
20824;SDS011;10573;50.936;6.978;2023-03-01T05:20:25;12.70;;;7.57;;
20824;SDS011;10573;50.936;6.978;2023-03-01T05:22:54;17.27;;;7.22;;
20824;SDS011;10573;50.936;6.978;2023-03-01T05:25:21;10.45;;;7.25;;
20824;SDS011;10573;50.936;6.978;2023-03-01T05:27:47;12.35;;;7.35;;
20824;SDS011;10573;50.936;6.978;2023-03-01T05:30:13;10.85;;;7.72;;
20824;SDS011;10573;50.936;6.978;2023-03-01T05:32:42;10.82;;;7.53;;
20824;SDS011;10573;50.936;6.978;2023-03-01T05:35:11;12.50;;;7.90;;
20824;SDS011;10573;50.936;6.978;2023-03-01T05:37:41;13.32;;;7.78;;
20824;SDS011;10573;50.936;6.978;2023-03-01T05:40:09;14.95;;;8.13;;
20824;SDS011;10573;50.936;6.978;2023-03-01T05:42:51;11.75;;;7.72;;
20824;SDS011;10573;50.936;6.978;2023-03-01T05:45:19;10.57;;;7.68;;
20824;SDS011;10573;50.936;6.978;2023-03-01T05:47:46;14.02;;;7.55;;
20824;SDS011;10573;50.936;6.978;2023-03-01T05:50:14;13.65;;;8.35;;
20824;SDS011;10573;50.936;6.978;2023-03-01T05:52:47;14.50;;;8.07;;
20824;SDS011;10573;50.936;6.978;2023-03-01T05:55:15;9.90;;;7.50;;
20824;SDS011;10573;50.936;6.978;2023-03-01T05:57:41;13.55;;;8.52;;
20824;SDS011;10573;50.936;6.978;2023-03-01T06:00:07;11.02;;;7.72;;
20824;SDS011;10573;50.936;6.978;2023-03-01T06:02:34;11.75;;;7.93;;
20824;SDS011;10573;50.936;6.978;2023-03-01T06:04:59;11.23;;;7.87;;
20824;SDS011;10573;50.936;6.978;2023-03-01T06:07:25;14.95;;;7.57;;
20824;SDS011;10573;50.936;6.978;2023-03-01T06:09:54;15.57;;;8.63;;
20824;SDS011;10573;50.936;6.978;2023-03-01T06:12:19;15.00;;;8.45;;
20824;SDS011;10573;50.936;6.978;2023-03-01T06:14:45;12.87;;;7.73;;
20824;SDS011;10573;50.936;6.978;2023-03-01T06:17:12;13.60;;;8.80;;
20824;SDS011;10573;50.936;6.978;2023-03-01T06:19:37;14.27;;;8.30;;
20824;SDS011;10573;50.936;6.978;2023-03-01T06:22:03;16.40;;;8.50;;
20824;SDS011;10573;50.936;6.978;2023-03-01T06:24:28;13.67;;;8.73;;
20824;SDS011;10573;50.936;6.978;2023-03-01T06:26:54;15.20;;;8.45;;
20824;SDS011;10573;50.936;6.978;2023-03-01T06:29:19;15.13;;;8.80;;
20824;SDS011;10573;50.936;6.978;2023-03-01T06:31:45;16.98;;;8.45;;
20824;SDS011;10573;50.936;6.978;2023-03-01T06:34:11;15.05;;;8.80;;
20824;SDS011;10573;50.936;6.978;2023-03-01T06:36:38;12.23;;;8.45;;
20824;SDS011;10573;50.936;6.978;2023-03-01T06:39:04;15.15;;;9.68;;
20824;SDS011;10573;50.936;6.978;2023-03-01T06:41:30;15.27;;;9.77;;
20824;SDS011;10573;50.936;6.978;2023-03-01T06:43:57;13.63;;;9.55;;
20824;SDS011;10573;50.936;6.978;2023-03-01T06:46:23;16.58;;;9.95;;
20824;SDS011;10573;50.936;6.978;2023-03-01T06:48:48;16.03;;;9.50;;
20824;SDS011;10573;50.936;6.978;2023-03-01T06:51:14;17.20;;;10.07;;
20824;SDS011;10573;50.936;6.978;2023-03-01T06:53:39;16.07;;;9.50;;
20824;SDS011;10573;50.936;6.978;2023-03-01T06:56:05;18.77;;;9.80;;
20824;SDS011;10573;50.936;6.978;2023-03-01T06:58:31;18.47;;;10.07;;
20824;SDS011;10573;50.936;6.978;2023-03-01T07:00:56;16.00;;;9.77;;
20824;SDS011;10573;50.936;6.978;2023-03-01T07:03:21;14.27;;;10.00;;
20824;SDS011;10573;50.936;6.978;2023-03-01T07:05:50;16.50;;;10.37;;
20824;SDS011;10573;50.936;6.978;2023-03-01T07:08:19;17.40;;;9.57;;
20824;SDS011;10573;50.936;6.978;2023-03-01T07:10:44;14.67;;;9.70;;
20824;SDS011;10573;50.936;6.978;2023-03-01T07:13:10;13.97;;;10.07;;
20824;SDS011;10573;50.936;6.978;2023-03-01T07:15:35;13.17;;;9.33;;
20824;SDS011;10573;50.936;6.978;2023-03-01T07:18:01;14.20;;;9.65;;
20824;SDS011;10573;50.936;6.978;2023-03-01T07:20:27;15.48;;;9.70;;
20824;SDS011;10573;50.936;6.978;2023-03-01T07:22:52;14.47;;;9.97;;
20824;SDS011;10573;50.936;6.978;2023-03-01T07:25:19;16.73;;;10.18;;
20824;SDS011;10573;50.936;6.978;2023-03-01T07:27:48;17.20;;;9.77;;
20824;SDS011;10573;50.936;6.978;2023-03-01T07:30:14;14.35;;;9.15;;
20824;SDS011;10573;50.936;6.978;2023-03-01T07:32:40;18.40;;;9.13;;
20824;SDS011;10573;50.936;6.978;2023-03-01T07:35:05;15.77;;;9.40;;
20824;SDS011;10573;50.936;6.978;2023-03-01T07:37:31;16.58;;;8.63;;
20824;SDS011;10573;50.936;6.978;2023-03-01T07:39:56;15.32;;;9.32;;
20824;SDS011;10573;50.936;6.978;2023-03-01T07:42:22;14.27;;;9.35;;
20824;SDS011;10573;50.936;6.978;2023-03-01T07:44:48;16.02;;;9.40;;
20824;SDS011;10573;50.936;6.978;2023-03-01T07:47:13;17.13;;;8.57;;
20824;SDS011;10573;50.936;6.978;2023-03-01T07:49:39;15.40;;;9.43;;
20824;SDS011;10573;50.936;6.978;2023-03-01T07:52:04;16.10;;;9.67;;
20824;SDS011;10573;50.936;6.978;2023-03-01T07:54:30;15.57;;;9.30;;
20824;SDS011;10573;50.936;6.978;2023-03-01T07:56:56;14.50;;;9.03;;
20824;SDS011;10573;50.936;6.978;2023-03-01T07:59:21;15.70;;;8.98;;
20824;SDS011;10573;50.936;6.978;2023-03-01T08:01:48;14.13;;;8.80;;
20824;SDS011;10573;50.936;6.978;2023-03-01T08:04:14;16.95;;;9.23;;
20824;SDS011;10573;50.936;6.978;2023-03-01T08:06:39;15.95;;;9.57;;
20824;SDS011;10573;50.936;6.978;2023-03-01T08:09:05;14.53;;;9.17;;
20824;SDS011;10573;50.936;6.978;2023-03-01T08:11:30;15.20;;;9.13;;
20824;SDS011;10573;50.936;6.978;2023-03-01T08:13:55;17.00;;;9.00;;
20824;SDS011;10573;50.936;6.978;2023-03-01T08:16:22;19.15;;;9.65;;
20824;SDS011;10573;50.936;6.978;2023-03-01T08:18:47;13.30;;;8.73;;
20824;SDS011;10573;50.936;6.978;2023-03-01T08:21:14;13.07;;;8.77;;
20824;SDS011;10573;50.936;6.978;2023-03-01T08:23:41;15.53;;;9.50;;
20824;SDS011;10573;50.936;6.978;2023-03-01T08:26:08;16.27;;;9.65;;
20824;SDS011;10573;50.936;6.978;2023-03-01T08:28:35;13.65;;;8.82;;
20824;SDS011;10573;50.936;6.978;2023-03-01T08:31:01;12.75;;;8.68;;
20824;SDS011;10573;50.936;6.978;2023-03-01T08:33:27;13.23;;;8.60;;
20824;SDS011;10573;50.936;6.978;2023-03-01T08:35:52;15.97;;;9.33;;
20824;SDS011;10573;50.936;6.978;2023-03-01T08:38:18;14.13;;;8.70;;
20824;SDS011;10573;50.936;6.978;2023-03-01T08:40:43;18.00;;;9.00;;
20824;SDS011;10573;50.936;6.978;2023-03-01T08:43:08;17.47;;;9.73;;
20824;SDS011;10573;50.936;6.978;2023-03-01T08:45:36;14.83;;;9.60;;
20824;SDS011;10573;50.936;6.978;2023-03-01T08:48:01;14.77;;;9.75;;
20824;SDS011;10573;50.936;6.978;2023-03-01T08:50:27;14.83;;;8.70;;
20824;SDS011;10573;50.936;6.978;2023-03-01T08:52:52;15.53;;;9.47;;
20824;SDS011;10573;50.936;6.978;2023-03-01T08:55:17;13.73;;;9.23;;
20824;SDS011;10573;50.936;6.978;2023-03-01T08:57:43;14.70;;;8.03;;
20824;SDS011;10573;50.936;6.978;2023-03-01T09:00:09;13.02;;;7.53;;
20824;SDS011;10573;50.936;6.978;2023-03-01T09:02:36;14.50;;;8.40;;
20824;SDS011;10573;50.936;6.978;2023-03-01T09:05:05;11.63;;;8.20;;
20824;SDS011;10573;50.936;6.978;2023-03-01T09:07:30;15.65;;;8.55;;
20824;SDS011;10573;50.936;6.978;2023-03-01T09:09:56;12.93;;;8.27;;
20824;SDS011;10573;50.936;6.978;2023-03-01T09:12:22;14.03;;;8.33;;
20824;SDS011;10573;50.936;6.978;2023-03-01T09:14:47;14.32;;;8.68;;
20824;SDS011;10573;50.936;6.978;2023-03-01T09:17:13;12.83;;;8.83;;
20824;SDS011;10573;50.936;6.978;2023-03-01T09:19:38;15.30;;;8.40;;
20824;SDS011;10573;50.936;6.978;2023-03-01T09:22:04;15.27;;;8.77;;
20824;SDS011;10573;50.936;6.978;2023-03-01T09:24:30;13.63;;;8.55;;
20824;SDS011;10573;50.936;6.978;2023-03-01T09:26:55;13.45;;;8.75;;
20824;SDS011;10573;50.936;6.978;2023-03-01T09:29:22;13.90;;;8.45;;
20824;SDS011;10573;50.936;6.978;2023-03-01T09:31:47;12.90;;;8.57;;
20824;SDS011;10573;50.936;6.978;2023-03-01T09:34:13;12.15;;;8.02;;
20824;SDS011;10573;50.936;6.978;2023-03-01T09:36:47;15.15;;;8.60;;
20824;SDS011;10573;50.936;6.978;2023-03-01T09:39:12;13.27;;;8.40;;
20824;SDS011;10573;50.936;6.978;2023-03-01T09:41:46;13.38;;;8.38;;
20824;SDS011;10573;50.936;6.978;2023-03-01T09:44:24;12.93;;;8.37;;
20824;SDS011;10573;50.936;6.978;2023-03-01T09:46:52;13.80;;;8.05;;
20824;SDS011;10573;50.936;6.978;2023-03-01T09:49:25;12.63;;;8.18;;
20824;SDS011;10573;50.936;6.978;2023-03-01T09:54:28;13.07;;;8.23;;
20824;SDS011;10573;50.936;6.978;2023-03-01T09:57:11;12.77;;;7.83;;
20824;SDS011;10573;50.936;6.978;2023-03-01T10:02:35;12.50;;;7.75;;
20824;SDS011;10573;50.936;6.978;2023-03-01T10:08:02;11.85;;;7.80;;
20824;SDS011;10573;50.936;6.978;2023-03-01T10:10:44;12.27;;;7.90;;
20824;SDS011;10573;50.936;6.978;2023-03-01T10:13:29;14.02;;;7.63;;
20824;SDS011;10573;50.936;6.978;2023-03-01T10:15:57;11.88;;;7.82;;
20824;SDS011;10573;50.936;6.978;2023-03-01T10:18:30;14.20;;;8.48;;
20824;SDS011;10573;50.936;6.978;2023-03-01T10:20:59;12.82;;;8.57;;
20824;SDS011;10573;50.936;6.978;2023-03-01T10:23:27;15.57;;;8.77;;
20824;SDS011;10573;50.936;6.978;2023-03-01T10:28:47;14.35;;;8.23;;
20824;SDS011;10573;50.936;6.978;2023-03-01T10:31:24;12.43;;;8.15;;
20824;SDS011;10573;50.936;6.978;2023-03-01T10:33:54;14.77;;;8.43;;
20824;SDS011;10573;50.936;6.978;2023-03-01T10:36:22;12.90;;;7.93;;
20824;SDS011;10573;50.936;6.978;2023-03-01T10:38:55;12.00;;;7.95;;
20824;SDS011;10573;50.936;6.978;2023-03-01T10:41:23;12.10;;;7.90;;
20824;SDS011;10573;50.936;6.978;2023-03-01T10:43:51;12.32;;;8.15;;
20824;SDS011;10573;50.936;6.978;2023-03-01T10:46:35;11.90;;;7.45;;
20824;SDS011;10573;50.936;6.978;2023-03-01T10:49:20;13.73;;;8.00;;
20824;SDS011;10573;50.936;6.978;2023-03-01T10:51:48;13.88;;;7.82;;
20824;SDS011;10573;50.936;6.978;2023-03-01T10:54:16;13.60;;;8.10;;
20824;SDS011;10573;50.936;6.978;2023-03-01T10:56:47;11.30;;;7.28;;
20824;SDS011;10573;50.936;6.978;2023-03-01T10:59:20;11.07;;;7.40;;
20824;SDS011;10573;50.936;6.978;2023-03-01T11:02:00;13.75;;;7.65;;
20824;SDS011;10573;50.936;6.978;2023-03-01T11:04:29;12.20;;;7.75;;
20824;SDS011;10573;50.936;6.978;2023-03-01T11:06:58;12.93;;;8.57;;
20824;SDS011;10573;50.936;6.978;2023-03-01T11:09:25;15.18;;;8.48;;
20824;SDS011;10573;50.936;6.978;2023-03-01T11:11:55;11.00;;;7.47;;
20824;SDS011;10573;50.936;6.978;2023-03-01T11:14:25;11.85;;;7.50;;
20824;SDS011;10573;50.936;6.978;2023-03-01T11:17:12;11.75;;;7.72;;
20824;SDS011;10573;50.936;6.978;2023-03-01T11:19:42;13.00;;;8.07;;
20824;SDS011;10573;50.936;6.978;2023-03-01T11:22:12;11.55;;;7.57;;
20824;SDS011;10573;50.936;6.978;2023-03-01T11:24:52;14.77;;;7.97;;
20824;SDS011;10573;50.936;6.978;2023-03-01T11:27:24;12.77;;;7.75;;
20824;SDS011;10573;50.936;6.978;2023-03-01T11:29:57;12.55;;;7.88;;
20824;SDS011;10573;50.936;6.978;2023-03-01T11:32:30;13.55;;;8.02;;
20824;SDS011;10573;50.936;6.978;2023-03-01T11:35:02;12.35;;;7.68;;
20824;SDS011;10573;50.936;6.978;2023-03-01T11:45:28;19.95;;;9.95;;
20824;SDS011;10573;50.936;6.978;2023-03-01T11:48:29;12.20;;;7.43;;
20824;SDS011;10573;50.936;6.978;2023-03-01T11:51:00;12.43;;;7.85;;
20824;SDS011;10573;50.936;6.978;2023-03-01T11:53:39;10.97;;;6.93;;
20824;SDS011;10573;50.936;6.978;2023-03-01T11:56:28;12.10;;;7.97;;
20824;SDS011;10573;50.936;6.978;2023-03-01T12:08:49;11.18;;;7.57;;
20824;SDS011;10573;50.936;6.978;2023-03-01T12:28:27;10.27;;;6.80;;
20824;SDS011;10573;50.936;6.978;2023-03-01T12:34:06;11.50;;;6.33;;
20824;SDS011;10573;50.936;6.978;2023-03-01T12:39:36;11.90;;;6.23;;
20824;SDS011;10573;50.936;6.978;2023-03-01T12:42:21;8.80;;;6.70;;
20824;SDS011;10573;50.936;6.978;2023-03-01T12:48:27;10.80;;;5.63;;
20824;SDS011;10573;50.936;6.978;2023-03-01T12:51:14;7.73;;;5.57;;
20824;SDS011;10573;50.936;6.978;2023-03-01T12:53:49;10.35;;;6.18;;
20824;SDS011;10573;50.936;6.978;2023-03-01T12:56:17;10.93;;;5.90;;
20824;SDS011;10573;50.936;6.978;2023-03-01T13:04:06;7.47;;;5.53;;
20824;SDS011;10573;50.936;6.978;2023-03-01T13:12:51;7.17;;;6.00;;
20824;SDS011;10573;50.936;6.978;2023-03-01T13:15:27;9.60;;;5.87;;
20824;SDS011;10573;50.936;6.978;2023-03-01T13:20:34;9.17;;;5.27;;
20824;SDS011;10573;50.936;6.978;2023-03-01T13:26:05;7.93;;;6.00;;
20824;SDS011;10573;50.936;6.978;2023-03-01T13:31:05;6.65;;;5.43;;
20824;SDS011;10573;50.936;6.978;2023-03-01T13:36:08;7.63;;;5.60;;
20824;SDS011;10573;50.936;6.978;2023-03-01T13:38:36;7.63;;;5.27;;
20824;SDS011;10573;50.936;6.978;2023-03-01T13:41:02;8.17;;;6.07;;
20824;SDS011;10573;50.936;6.978;2023-03-01T13:43:33;11.07;;;6.22;;
20824;SDS011;10573;50.936;6.978;2023-03-01T13:46:01;9.50;;;6.10;;
20824;SDS011;10573;50.936;6.978;2023-03-01T13:48:33;9.87;;;6.50;;
20824;SDS011;10573;50.936;6.978;2023-03-01T13:51:02;11.47;;;6.37;;
20824;SDS011;10573;50.936;6.978;2023-03-01T13:53:43;9.48;;;6.45;;
20824;SDS011;10573;50.936;6.978;2023-03-01T13:56:20;8.57;;;5.97;;
20824;SDS011;10573;50.936;6.978;2023-03-01T13:58:53;11.32;;;7.57;;
20824;SDS011;10573;50.936;6.978;2023-03-01T14:01:26;11.88;;;6.38;;
20824;SDS011;10573;50.936;6.978;2023-03-01T14:03:52;8.80;;;6.22;;
20824;SDS011;10573;50.936;6.978;2023-03-01T14:06:23;9.90;;;6.07;;
20824;SDS011;10573;50.936;6.978;2023-03-01T14:08:52;8.17;;;5.90;;
20824;SDS011;10573;50.936;6.978;2023-03-01T14:19:16;7.97;;;4.67;;
20824;SDS011;10573;50.936;6.978;2023-03-01T14:21:45;6.53;;;4.80;;
20824;SDS011;10573;50.936;6.978;2023-03-01T14:24:18;5.60;;;4.53;;
20824;SDS011;10573;50.936;6.978;2023-03-01T14:26:46;9.63;;;5.22;;
20824;SDS011;10573;50.936;6.978;2023-03-01T14:29:25;7.40;;;4.40;;
20824;SDS011;10573;50.936;6.978;2023-03-01T14:34:48;6.63;;;4.70;;
20824;SDS011;10573;50.936;6.978;2023-03-01T14:37:35;8.68;;;4.88;;
20824;SDS011;10573;50.936;6.978;2023-03-01T14:40:00;7.60;;;5.00;;
20824;SDS011;10573;50.936;6.978;2023-03-01T14:42:31;8.90;;;5.47;;
20824;SDS011;10573;50.936;6.978;2023-03-01T14:45:00;8.67;;;5.93;;
20824;SDS011;10573;50.936;6.978;2023-03-01T14:47:27;8.82;;;5.72;;
20824;SDS011;10573;50.936;6.978;2023-03-01T14:52:39;8.77;;;6.10;;
20824;SDS011;10573;50.936;6.978;2023-03-01T14:55:09;12.00;;;6.35;;
20824;SDS011;10573;50.936;6.978;2023-03-01T14:57:46;10.27;;;5.75;;
20824;SDS011;10573;50.936;6.978;2023-03-01T15:00:20;8.30;;;5.95;;
20824;SDS011;10573;50.936;6.978;2023-03-01T15:02:51;7.95;;;5.55;;
20824;SDS011;10573;50.936;6.978;2023-03-01T15:05:18;10.02;;;5.93;;
20824;SDS011;10573;50.936;6.978;2023-03-01T15:07:52;10.05;;;5.70;;
20824;SDS011;10573;50.936;6.978;2023-03-01T15:10:20;8.98;;;5.60;;
20824;SDS011;10573;50.936;6.978;2023-03-01T15:12:53;10.25;;;5.82;;
20824;SDS011;10573;50.936;6.978;2023-03-01T15:15:29;7.82;;;5.88;;
20824;SDS011;10573;50.936;6.978;2023-03-01T15:17:56;9.00;;;5.78;;
20824;SDS011;10573;50.936;6.978;2023-03-01T15:20:24;8.80;;;6.22;;
20824;SDS011;10573;50.936;6.978;2023-03-01T15:22:52;7.97;;;6.25;;
20824;SDS011;10573;50.936;6.978;2023-03-01T15:25:23;8.73;;;5.60;;
20824;SDS011;10573;50.936;6.978;2023-03-01T15:27:52;9.65;;;5.55;;
20824;SDS011;10573;50.936;6.978;2023-03-01T15:30:21;9.40;;;5.90;;
20824;SDS011;10573;50.936;6.978;2023-03-01T15:32:49;13.75;;;6.55;;
20824;SDS011;10573;50.936;6.978;2023-03-01T15:35:52;9.00;;;5.57;;
20824;SDS011;10573;50.936;6.978;2023-03-01T15:38:29;7.83;;;5.57;;
20824;SDS011;10573;50.936;6.978;2023-03-01T15:40:57;9.85;;;6.03;;
20824;SDS011;10573;50.936;6.978;2023-03-01T15:43:37;9.68;;;6.40;;
20824;SDS011;10573;50.936;6.978;2023-03-01T15:48:56;9.80;;;6.30;;
20824;SDS011;10573;50.936;6.978;2023-03-01T15:51:33;9.57;;;6.33;;
20824;SDS011;10573;50.936;6.978;2023-03-01T15:54:13;8.57;;;5.85;;
20824;SDS011;10573;50.936;6.978;2023-03-01T15:56:44;9.00;;;6.07;;
20824;SDS011;10573;50.936;6.978;2023-03-01T15:59:10;9.97;;;6.07;;
20824;SDS011;10573;50.936;6.978;2023-03-01T16:01:42;10.67;;;6.33;;
20824;SDS011;10573;50.936;6.978;2023-03-01T16:04:09;9.43;;;6.30;;
20824;SDS011;10573;50.936;6.978;2023-03-01T16:06:41;10.70;;;5.97;;
20824;SDS011;10573;50.936;6.978;2023-03-01T16:09:06;8.45;;;5.55;;
20824;SDS011;10573;50.936;6.978;2023-03-01T16:11:32;9.55;;;5.75;;
20824;SDS011;10573;50.936;6.978;2023-03-01T16:13:59;10.30;;;5.93;;
20824;SDS011;10573;50.936;6.978;2023-03-01T16:16:24;9.47;;;5.63;;
20824;SDS011;10573;50.936;6.978;2023-03-01T16:18:50;10.33;;;6.00;;
20824;SDS011;10573;50.936;6.978;2023-03-01T16:21:19;9.20;;;6.00;;
20824;SDS011;10573;50.936;6.978;2023-03-01T16:23:47;9.38;;;5.53;;
20824;SDS011;10573;50.936;6.978;2023-03-01T16:26:12;9.30;;;6.13;;
20824;SDS011;10573;50.936;6.978;2023-03-01T16:28:39;9.90;;;6.03;;
20824;SDS011;10573;50.936;6.978;2023-03-01T16:31:05;10.80;;;6.18;;
20824;SDS011;10573;50.936;6.978;2023-03-01T16:33:31;7.53;;;5.88;;
20824;SDS011;10573;50.936;6.978;2023-03-01T16:35:57;12.07;;;5.65;;